createdAt,value
2022-12-19T00:01:39.831Z,101479.47
2022-12-19T00:06:43.918Z,101484.34
2022-12-19T00:11:47.818Z,101500.41
2022-12-19T00:16:49.528Z,101489.38
2022-12-19T00:21:51.276Z,101457.47
2022-12-19T00:26:52.913Z,101471.38
2022-12-19T00:31:55.021Z,101450.38
2022-12-19T00:36:56.725Z,101448.53
2022-12-19T00:41:58.301Z,101441.94
2022-12-19T00:46:59.943Z,101432.66
2022-12-19T00:52:01.636Z,101417.72
2022-12-19T00:57:05.148Z,101415.03
2022-12-19T01:02:06.888Z,101413.41
2022-12-19T01:07:10.591Z,101403.03
2022-12-19T01:12:30.650Z,101386.56
2022-12-19T01:17:43.632Z,101383.53
2022-12-19T01:22:46.767Z,101382.53
2022-12-19T01:27:48.384Z,101364.97
2022-12-19T01:32:50.005Z,101360.84
2022-12-19T01:37:56.095Z,101346.66
2022-12-19T01:43:14.991Z,101337.53
2022-12-19T01:48:20.722Z,101330.63
2022-12-19T01:53:27.479Z,101327.81
2022-12-19T01:58:30.661Z,101328.00
2022-12-19T02:03:34.799Z,101317.47
2022-12-19T02:08:37.492Z,101311.84
2022-12-19T02:13:41.177Z,101301.09
2022-12-19T02:18:58.246Z,101290.41
2022-12-19T02:24:24.358Z,101287.25
2022-12-19T02:29:58.426Z,101267.78
2022-12-19T02:35:16.077Z,101257.59
2022-12-19T02:40:31.977Z,101259.53
2022-12-19T02:45:37.860Z,101244.47
2022-12-19T02:50:45.171Z,101240.56
2022-12-19T02:56:20.342Z,101232.69
2022-12-19T03:01:50.071Z,101226.16
2022-12-19T03:06:59.872Z,101233.97
2022-12-19T03:12:14.247Z,101236.44
2022-12-19T03:17:19.314Z,101234.00
2022-12-19T03:22:22.417Z,101217.47
2022-12-19T03:27:30.062Z,101212.53
2022-12-19T03:32:34.702Z,101206.88
2022-12-19T03:37:39.656Z,101199.22
2022-12-19T03:43:01.179Z,101199.47
2022-12-19T03:48:08.775Z,101187.13
2022-12-19T03:53:24.411Z,101192.84
2022-12-19T03:58:35.429Z,101192.72
2022-12-19T04:03:37.421Z,101175.81
2022-12-19T04:08:40.185Z,101187.03
2022-12-19T04:13:51.778Z,101192.25
2022-12-19T04:19:01.955Z,101182.63
2022-12-19T04:24:13.549Z,101172.00
2022-12-19T04:29:15.985Z,101174.22
2022-12-19T04:34:21.116Z,101171.13
2022-12-19T04:39:22.903Z,101160.59
2022-12-19T04:44:26.465Z,101164.44
2022-12-19T04:49:28.691Z,101166.50
2022-12-19T04:54:30.327Z,101160.44
2022-12-19T04:59:31.936Z,101146.09
2022-12-19T05:04:34.626Z,101141.63
2022-12-19T05:09:36.289Z,101141.94
2022-12-19T05:14:37.913Z,101142.28
2022-12-19T05:19:39.629Z,101129.16
2022-12-19T05:24:41.437Z,101139.41
2022-12-19T05:29:43.034Z,101136.06
2022-12-19T05:34:44.743Z,101128.22
2022-12-19T05:39:46.345Z,101130.41
2022-12-19T05:44:48.180Z,101137.19
2022-12-19T05:49:49.868Z,101138.38
2022-12-19T05:54:51.463Z,101123.50
2022-12-19T05:59:53.058Z,101129.00
2022-12-19T06:04:54.803Z,101134.53
2022-12-19T06:09:56.542Z,101121.34
2022-12-19T06:14:58.196Z,101118.84
2022-12-19T06:20:00.242Z,101128.91
2022-12-19T06:25:02.022Z,101112.88
2022-12-19T06:30:03.962Z,101110.47
2022-12-19T06:35:06.165Z,101122.13
2022-12-19T06:40:28.617Z,101126.88
2022-12-19T06:45:31.231Z,101131.19
2022-12-19T06:50:34.158Z,101114.16
2022-12-19T06:55:37.710Z,101117.31
2022-12-19T07:00:39.350Z,101126.53
2022-12-19T07:05:41.717Z,101122.84
2022-12-19T07:10:43.350Z,101132.03
2022-12-19T07:15:45.042Z,101137.81
2022-12-19T07:20:46.764Z,101139.25
2022-12-19T07:25:48.502Z,101121.03
2022-12-19T07:30:50.133Z,101146.06
2022-12-19T07:35:52.407Z,101146.34
2022-12-19T07:40:54.054Z,101142.78
2022-12-19T07:45:56.953Z,101140.66
2022-12-19T07:51:00.730Z,101135.91
2022-12-19T07:56:02.399Z,101144.94
2022-12-19T08:01:04.328Z,101160.47
2022-12-19T08:06:07.513Z,101149.25
2022-12-19T08:11:18.589Z,101154.59
2022-12-19T08:16:21.032Z,101166.94
2022-12-19T08:21:23.536Z,101169.69
2022-12-19T08:26:27.752Z,101169.81
2022-12-19T08:31:31.928Z,101174.84
2022-12-19T08:36:34.479Z,101170.81
2022-12-19T08:41:36.881Z,101168.09
2022-12-19T08:46:38.925Z,101175.31
2022-12-19T08:51:40.592Z,101170.13
2022-12-19T08:56:46.763Z,101174.72
2022-12-19T09:01:48.991Z,101182.47
2022-12-19T09:06:51.462Z,101186.50
2022-12-19T09:11:53.188Z,101176.59
2022-12-19T09:16:54.812Z,101177.03
2022-12-19T09:21:59.397Z,101175.31
2022-12-19T09:27:01.015Z,101175.31
2022-12-19T09:32:02.859Z,101192.56
2022-12-19T09:37:06.189Z,101180.06
2022-12-19T09:42:39.342Z,101209.94
2022-12-19T09:47:46.512Z,101197.00
2022-12-19T09:52:57.900Z,101199.16
2022-12-19T09:58:04.737Z,101199.34
2022-12-19T10:03:21.064Z,101194.84
2022-12-19T10:08:32.078Z,101190.50
2022-12-19T10:13:51.036Z,101216.16
2022-12-19T10:18:57.417Z,101197.28
2022-12-19T10:24:34.837Z,101205.91
2022-12-19T10:29:56.985Z,101207.03
2022-12-19T10:34:59.407Z,101191.53
2022-12-19T10:40:01.030Z,101195.50
2022-12-19T10:45:10.045Z,101200.56
2022-12-19T10:50:21.799Z,101193.06
2022-12-19T10:55:46.622Z,101196.22
2022-12-19T11:00:54.323Z,101186.69
2022-12-19T11:05:58.151Z,101194.75
2022-12-19T11:13:20.880Z,101199.38
2022-12-19T11:21:14.497Z,101185.97
2022-12-19T11:29:30.011Z,101191.88
2022-12-19T11:30:05.575Z,101182.38
2022-12-19T11:33:15.812Z,101169.41
2022-12-19T11:38:29.447Z,101161.59
2022-12-19T11:43:46.143Z,101171.41
2022-12-19T11:48:55.811Z,101165.47
2022-12-19T11:54:18.918Z,101156.22
2022-12-19T11:59:27.438Z,101147.25
2022-12-19T12:04:38.365Z,101137.59
2022-12-19T12:15:39.681Z,101122.28
2022-12-19T12:23:57.432Z,101126.69
2022-12-19T12:31:10.968Z,101108.78
2022-12-19T12:31:48.338Z,101124.19
2022-12-19T12:35:48.611Z,101118.09
2022-12-19T12:44:11.295Z,101110.81
2022-12-19T12:49:23.372Z,101108.53
2022-12-19T12:54:41.845Z,101108.84
2022-12-19T12:59:46.698Z,101116.03
2022-12-19T13:04:59.179Z,101106.72
2022-12-19T13:10:12.881Z,101082.22
2022-12-19T13:15:32.612Z,101084.97
2022-12-19T13:20:42.798Z,101065.81
2022-12-19T13:25:44.375Z,101070.03
2022-12-19T13:31:19.993Z,101054.66
2022-12-19T13:39:48.681Z,101059.25
2022-12-19T13:42:30.498Z,101044.69
2022-12-19T13:47:37.820Z,101046.09
2022-12-19T13:52:39.495Z,101039.56
2022-12-19T13:57:41.324Z,101032.75
2022-12-19T14:02:54.551Z,101039.63
2022-12-19T14:07:57.206Z,101046.53
2022-12-19T14:13:38.263Z,101041.03
2022-12-19T14:18:42.309Z,101055.81
2022-12-19T14:23:47.326Z,101055.34
2022-12-19T14:29:01.538Z,101036.16
2022-12-19T14:34:35.534Z,101060.34
2022-12-19T14:39:30.816Z,101074.06
2022-12-19T14:52:35.817Z,101064.44
2022-12-19T14:54:04.079Z,101070.22
2022-12-19T14:56:33.142Z,101055.97
2022-12-19T15:01:30.134Z,101055.25
2022-12-19T15:07:07.035Z,101052.84
2022-12-19T15:14:20.715Z,101045.34
2022-12-19T15:17:55.342Z,101031.22
2022-12-19T15:22:57.075Z,101022.66
2022-12-19T15:27:58.678Z,101031.09
2022-12-19T15:33:00.304Z,101027.78
2022-12-19T15:38:02.259Z,101023.41
2022-12-19T15:43:04.652Z,101040.72
2022-12-19T15:48:06.344Z,101032.13
2022-12-19T15:53:39.989Z,101029.91
2022-12-19T15:58:42.611Z,101023.91
2022-12-19T16:03:44.667Z,101038.44
2022-12-19T16:08:46.468Z,101039.00
2022-12-19T16:13:54.378Z,101041.56
2022-12-19T16:18:56.057Z,101048.44
2022-12-19T16:23:57.732Z,101041.56
2022-12-19T16:29:00.224Z,101042.59
2022-12-19T16:34:02.481Z,101036.72
2022-12-19T16:39:04.145Z,101040.34
2022-12-19T16:44:19.086Z,101031.72
2022-12-19T16:49:23.039Z,101036.63
2022-12-19T16:54:24.674Z,101028.44
2022-12-19T16:59:40.328Z,101028.69
2022-12-19T17:04:42.162Z,101033.44
2022-12-19T17:09:44.468Z,101028.97
2022-12-19T17:14:46.098Z,101025.69
2022-12-19T17:19:47.875Z,101043.38
2022-12-19T17:24:49.504Z,101031.56
2022-12-19T17:29:51.214Z,101033.28
2022-12-19T17:34:52.971Z,101037.75
2022-12-19T17:39:54.921Z,101024.34
2022-12-19T17:44:56.700Z,101036.00
2022-12-19T17:49:58.524Z,101041.91
2022-12-19T17:55:00.258Z,101033.81
2022-12-19T18:00:04.281Z,101041.91
2022-12-19T18:05:22.037Z,101034.53
2022-12-19T18:10:30.854Z,101022.88
2022-12-19T18:15:32.583Z,101015.34
2022-12-19T18:20:35.035Z,101019.13
2022-12-19T18:25:36.843Z,101036.78
2022-12-19T18:30:39.167Z,101038.13
2022-12-19T18:35:43.266Z,101047.94
2022-12-19T18:40:45.980Z,101064.81
2022-12-19T18:45:51.359Z,101072.31
2022-12-19T18:50:54.864Z,101067.53
2022-12-19T18:55:58.239Z,101071.88
2022-12-19T19:01:01.382Z,101075.13
2022-12-19T19:06:05.451Z,101083.53
2022-12-19T19:11:07.270Z,101074.50
2022-12-19T19:16:20.539Z,101080.94
2022-12-19T19:21:28.748Z,101074.97
2022-12-19T19:26:30.389Z,101076.78
2022-12-19T19:31:38.463Z,101085.16
2022-12-19T19:36:44.904Z,101085.75
2022-12-19T19:41:46.584Z,101092.94
2022-12-19T19:46:48.783Z,101104.81
2022-12-19T19:51:52.384Z,101093.34
2022-12-19T19:56:57.297Z,101099.19
2022-12-19T20:01:59.198Z,101098.03
2022-12-19T20:07:01.096Z,101109.50
2022-12-19T20:12:02.804Z,101104.56
2022-12-19T20:17:04.415Z,101103.09
2022-12-19T20:22:06.059Z,101104.28
2022-12-19T20:27:07.689Z,101101.91
2022-12-19T20:32:10.084Z,101098.44
2022-12-19T20:37:11.749Z,101099.00
2022-12-19T20:42:13.307Z,101090.63
2022-12-19T20:47:14.995Z,101104.00
2022-12-19T20:52:16.671Z,101092.88
2022-12-19T20:57:18.302Z,101088.94
2022-12-19T21:02:20.132Z,101089.78
2022-12-19T21:07:21.901Z,101101.78
2022-12-19T21:12:23.699Z,101096.84
2022-12-19T21:17:25.427Z,101104.28
2022-12-19T21:22:26.982Z,101100.34
2022-12-19T21:27:28.578Z,101099.00
2022-12-19T21:32:30.237Z,101093.19
2022-12-19T21:37:31.861Z,101079.50
2022-12-19T21:42:35.035Z,101072.47
2022-12-19T21:47:39.434Z,101075.22
2022-12-19T21:52:41.481Z,101080.38
2022-12-19T21:57:43.051Z,101076.94
2022-12-19T22:03:12.207Z,101065.97
2022-12-19T22:08:10.896Z,101065.59
2022-12-19T22:13:12.475Z,101071.78
2022-12-19T22:18:14.150Z,101060.81
2022-12-19T22:23:15.725Z,101058.25
2022-12-19T22:28:17.398Z,101051.38
2022-12-19T22:33:19.044Z,101051.38
2022-12-19T22:38:21.070Z,101050.22
2022-12-19T22:43:23.798Z,101046.97
2022-12-19T22:48:25.482Z,101048.97
2022-12-19T22:53:27.121Z,101043.47
2022-12-19T22:58:29.317Z,101041.44
2022-12-19T23:03:31.532Z,101048.63
2022-12-19T23:08:33.972Z,101044.34
2022-12-19T23:13:35.671Z,101041.28
2022-12-19T23:18:40.722Z,101032.16
2022-12-19T23:23:44.444Z,101039.69
2022-12-19T23:28:52.829Z,101032.34
2022-12-19T23:33:55.444Z,101039.38
2022-12-19T23:38:57.508Z,101026.34
2022-12-19T23:43:59.159Z,101033.72
2022-12-19T23:49:00.814Z,101027.88
2022-12-19T23:54:02.573Z,101028.41
2022-12-19T23:59:04.214Z,101026.53
